createdAt,value
2018-04-01T00:01:58.568Z,23.30
2018-04-01T00:04:25.113Z,21.03
2018-04-01T00:06:51.560Z,20.20
2018-04-01T00:09:17.997Z,14.73
2018-04-01T00:11:44.439Z,12.03
2018-04-01T00:14:10.913Z,9.37
2018-04-01T00:16:37.328Z,9.20
2018-04-01T00:19:03.793Z,8.40
2018-04-01T00:21:30.225Z,8.83
2018-04-01T00:23:56.679Z,8.23
2018-04-01T00:26:23.096Z,9.20
2018-04-01T00:28:49.633Z,8.23
2018-04-01T00:31:16.054Z,9.50
2018-04-01T00:33:42.477Z,9.20
2018-04-01T00:36:08.921Z,12.50
2018-04-01T00:38:35.346Z,9.53
2018-04-01T00:41:01.794Z,9.83
2018-04-01T00:43:28.308Z,10.63
2018-04-01T00:45:54.764Z,11.43
2018-04-01T00:48:21.233Z,10.67
2018-04-01T00:50:47.697Z,11.93
2018-04-01T00:53:14.233Z,11.60
2018-04-01T00:55:40.669Z,12.90
2018-04-01T00:58:07.116Z,11.07
2018-04-01T01:00:33.566Z,11.67
2018-04-01T01:03:00.110Z,12.27
2018-04-01T01:05:26.576Z,12.27
2018-04-01T01:07:53.027Z,12.27
2018-04-01T01:10:19.478Z,12.17
2018-04-01T01:12:45.925Z,11.70
2018-04-01T01:15:12.396Z,11.27
2018-04-01T01:17:38.867Z,12.07
2018-04-01T01:20:05.309Z,10.90
2018-04-01T01:22:31.747Z,11.93
2018-04-01T01:24:58.178Z,11.00
2018-04-01T01:27:24.665Z,17.00
2018-04-01T01:29:51.112Z,20.47
2018-04-01T01:32:17.556Z,19.37
2018-04-01T01:34:44.036Z,21.30
2018-04-01T01:37:10.559Z,24.83
2018-04-01T01:39:36.989Z,20.27
2018-04-01T01:42:03.470Z,17.70
2018-04-01T01:44:29.889Z,18.37
2018-04-01T01:46:56.321Z,16.43
2018-04-01T01:49:26.088Z,14.53
2018-04-01T01:51:52.521Z,12.63
2018-04-01T01:54:18.973Z,13.53
2018-04-01T01:56:45.407Z,13.43
2018-04-01T01:59:11.828Z,13.87
2018-04-01T02:01:38.377Z,13.53
2018-04-01T02:04:04.858Z,13.47
2018-04-01T02:06:31.277Z,13.87
2018-04-01T02:08:57.737Z,13.83
2018-04-01T02:11:24.172Z,14.07
2018-04-01T02:13:50.603Z,13.23
2018-04-01T02:16:17.058Z,13.07
2018-04-01T02:18:43.489Z,13.30
2018-04-01T02:21:09.937Z,13.73
2018-04-01T02:23:36.369Z,14.90
2018-04-01T02:26:02.834Z,14.17
2018-04-01T02:28:29.259Z,13.40
2018-04-01T02:30:55.714Z,12.97
2018-04-01T02:33:22.150Z,16.80
2018-04-01T02:35:48.589Z,17.50
2018-04-01T02:38:15.032Z,20.67
2018-04-01T02:40:41.462Z,14.10
2018-04-01T02:43:07.897Z,16.27
2018-04-01T02:45:34.348Z,16.93
2018-04-01T02:48:00.845Z,14.30
2018-04-01T02:50:27.293Z,16.30
2018-04-01T02:52:53.715Z,15.03
2018-04-01T02:55:20.141Z,14.17
2018-04-01T02:57:46.598Z,16.13
2018-04-01T03:00:13.066Z,15.20
2018-04-01T03:02:39.509Z,14.50
2018-04-01T03:05:05.939Z,16.27
2018-04-01T03:07:32.386Z,16.13
2018-04-01T03:09:58.828Z,14.30
2018-04-01T03:12:25.269Z,14.50
2018-04-01T03:14:51.780Z,15.97
2018-04-01T03:17:18.212Z,18.27
2018-04-01T03:19:44.690Z,13.90
2018-04-01T03:22:11.122Z,14.90
2018-04-01T03:24:37.581Z,16.13
2018-04-01T03:27:04.004Z,17.23
2018-04-01T03:29:30.466Z,16.13
2018-04-01T03:31:56.925Z,17.47
2018-04-01T03:34:23.350Z,19.00
2018-04-01T03:36:49.806Z,19.10
2018-04-01T03:39:16.246Z,19.20
2018-04-01T03:41:42.685Z,22.20
2018-04-01T03:44:09.619Z,23.27
2018-04-01T03:46:36.065Z,26.10
2018-04-01T03:49:02.502Z,26.60
2018-04-01T03:51:28.960Z,20.77
2018-04-01T03:53:55.537Z,23.30
2018-04-01T03:56:21.961Z,23.67
2018-04-01T03:58:48.413Z,25.37
2018-04-01T04:01:14.846Z,21.90
2018-04-01T04:03:41.289Z,23.33
2018-04-01T04:06:07.737Z,21.77
2018-04-01T04:08:34.206Z,22.63
2018-04-01T04:11:00.653Z,20.20
2018-04-01T04:13:27.092Z,19.20
2018-04-01T04:15:53.601Z,20.00
2018-04-01T04:18:20.140Z,16.27
2018-04-01T04:20:46.588Z,16.70
2018-04-01T04:23:13.025Z,17.23
2018-04-01T04:25:39.476Z,15.40
2018-04-01T04:28:06.041Z,17.90
2018-04-01T04:30:32.481Z,20.03
2018-04-01T04:32:58.949Z,14.83
2018-04-01T04:35:25.387Z,17.63
2018-04-01T04:37:51.836Z,14.10
2018-04-01T04:40:18.276Z,17.70
2018-04-01T04:42:44.737Z,14.50
2018-04-01T04:45:11.199Z,19.17
2018-04-01T04:47:37.699Z,12.03
2018-04-01T04:50:04.126Z,9.27
2018-04-01T04:52:30.689Z,11.53
2018-04-01T04:54:57.113Z,10.17
2018-04-01T04:57:23.581Z,9.87
2018-04-01T04:59:50.017Z,14.47
2018-04-01T05:02:16.432Z,14.40
2018-04-01T05:04:42.898Z,13.87
2018-04-01T05:07:09.324Z,14.90
2018-04-01T05:09:35.777Z,14.00
2018-04-01T05:12:02.252Z,13.37
2018-04-01T05:14:29.682Z,15.00
2018-04-01T05:16:56.168Z,16.97
2018-04-01T05:19:22.629Z,14.47
2018-04-01T05:21:49.085Z,18.90
2018-04-01T05:24:15.637Z,15.23
2018-04-01T05:26:42.117Z,17.50
2018-04-01T05:29:08.569Z,21.03
2018-04-01T05:31:35.079Z,22.40
2018-04-01T05:34:01.550Z,19.10
2018-04-01T05:36:28.306Z,17.67
2018-04-01T05:38:54.761Z,20.10
2018-04-01T05:41:21.226Z,17.00
2018-04-01T05:43:47.673Z,16.13
2018-04-01T05:46:14.165Z,15.97
2018-04-01T05:48:40.618Z,16.67
2018-04-01T05:51:07.050Z,19.43
2018-04-01T05:53:33.498Z,16.27
2018-04-01T05:56:00.002Z,19.60
2018-04-01T05:58:26.457Z,18.47
2018-04-01T06:00:52.908Z,20.90
2018-04-01T06:03:19.362Z,20.30
2018-04-01T06:05:45.813Z,19.00
2018-04-01T06:08:12.258Z,18.93
2018-04-01T06:10:38.715Z,19.03
2018-04-01T06:13:05.395Z,21.90
2018-04-01T06:15:31.932Z,22.60
2018-04-01T06:17:58.402Z,20.00
2018-04-01T06:20:24.849Z,19.80
2018-04-01T06:22:51.326Z,19.73
2018-04-01T06:25:17.767Z,22.20
2018-04-01T06:27:44.221Z,19.20
2018-04-01T06:30:10.678Z,19.77
2018-04-01T06:32:38.081Z,23.13
2018-04-01T06:35:04.599Z,19.07
2018-04-01T06:37:31.046Z,20.97
2018-04-01T06:39:57.582Z,19.60
2018-04-01T06:42:23.970Z,21.23
2018-04-01T06:44:50.430Z,22.97
2018-04-01T06:47:16.879Z,19.60
2018-04-01T06:49:43.407Z,19.90
2018-04-01T06:52:09.858Z,18.43
2018-04-01T06:54:36.439Z,20.93
2018-04-01T06:57:02.915Z,17.40
2018-04-01T06:59:29.328Z,19.80
2018-04-01T07:01:55.785Z,17.37
2018-04-01T07:04:22.245Z,18.00
2018-04-01T07:06:48.710Z,17.27
2018-04-01T07:09:15.175Z,20.40
2018-04-01T07:11:41.614Z,16.60
2018-04-01T07:14:08.716Z,19.93
2018-04-01T07:16:35.144Z,16.50
2018-04-01T07:19:01.616Z,15.10
2018-04-01T07:21:28.071Z,13.33
2018-04-01T07:23:54.563Z,14.83
2018-04-01T07:26:21.153Z,15.13
2018-04-01T07:28:47.609Z,14.70
2018-04-01T07:31:14.623Z,13.87
2018-04-01T07:33:41.156Z,16.33
2018-04-01T07:36:08.502Z,15.13
2018-04-01T07:38:34.982Z,15.53
2018-04-01T07:41:01.432Z,15.73
2018-04-01T07:43:27.880Z,14.60
2018-04-01T07:45:54.363Z,12.90
2018-04-01T07:48:20.826Z,13.73
2018-04-01T07:50:47.286Z,13.63
2018-04-01T07:53:13.853Z,15.17
2018-04-01T07:55:40.326Z,15.00
2018-04-01T07:58:06.825Z,14.73
2018-04-01T08:00:34.118Z,16.23
2018-04-01T08:03:00.586Z,14.83
2018-04-01T08:05:28.292Z,15.00
2018-04-01T08:07:55.073Z,16.03
2018-04-01T08:10:22.491Z,17.80
2018-04-01T08:12:48.999Z,15.20
2018-04-01T08:15:15.844Z,17.80
2018-04-01T08:17:42.706Z,17.07
2018-04-01T08:20:09.174Z,20.93
2018-04-01T08:22:35.610Z,24.00
2018-04-01T08:25:02.884Z,18.77
2018-04-01T08:27:29.328Z,18.23
2018-04-01T08:29:55.779Z,19.37
2018-04-01T08:32:22.247Z,20.63
2018-04-01T08:34:49.084Z,23.20
2018-04-01T08:37:15.543Z,21.90
2018-04-01T08:39:41.982Z,19.30
2018-04-01T08:42:08.458Z,19.83
2018-04-01T08:44:34.897Z,23.80
2018-04-01T08:47:02.178Z,20.20
2018-04-01T08:49:28.678Z,19.30
2018-04-01T08:51:55.177Z,18.83
2018-04-01T08:54:21.622Z,19.77
2018-04-01T08:56:48.106Z,19.00
2018-04-01T08:59:14.550Z,20.47
2018-04-01T09:01:41.841Z,25.83
2018-04-01T09:04:08.790Z,19.60
2018-04-01T09:06:35.289Z,24.70
2018-04-01T09:11:34.725Z,23.63
2018-04-01T09:14:01.342Z,23.13
2018-04-01T09:16:27.811Z,24.67
2018-04-01T09:18:54.260Z,27.17
2018-04-01T09:21:20.688Z,17.97
2018-04-01T09:23:47.547Z,21.43
2018-04-01T09:26:13.973Z,19.90
2018-04-01T09:28:40.653Z,20.70
2018-04-01T09:31:07.123Z,21.10
2018-04-01T09:33:33.623Z,25.50
2018-04-01T09:36:00.875Z,23.90
2018-04-01T09:38:27.674Z,27.57
2018-04-01T09:40:54.111Z,29.30
2018-04-01T09:43:20.560Z,29.13
2018-04-01T09:45:47.019Z,29.40
2018-04-01T09:48:14.230Z,27.47
2018-04-01T09:50:40.691Z,34.17
2018-04-01T09:53:07.154Z,30.60
2018-04-01T09:55:33.627Z,29.20
2018-04-01T09:58:00.131Z,27.40
2018-04-01T10:00:26.629Z,27.50
2018-04-01T10:02:53.436Z,29.40
2018-04-01T10:05:20.145Z,33.00
2018-04-01T10:07:47.711Z,30.27
2018-04-01T10:10:14.443Z,29.20
2018-04-01T10:12:41.122Z,27.43
2018-04-01T10:15:07.778Z,25.63
2018-04-01T10:17:34.487Z,29.50
2018-04-01T10:20:01.241Z,30.20
2018-04-01T10:22:27.915Z,29.30
2018-04-01T10:24:55.262Z,27.83
2018-04-01T10:27:21.983Z,23.20
2018-04-01T10:29:49.420Z,21.53
2018-04-01T10:32:16.437Z,17.17
2018-04-01T10:34:43.194Z,17.30
2018-04-01T10:37:09.909Z,18.90
2018-04-01T10:39:36.635Z,19.03
2018-04-01T10:42:03.350Z,22.40
2018-04-01T10:44:30.069Z,24.87
2018-04-01T10:46:56.824Z,21.43
2018-04-01T10:49:23.583Z,23.33
2018-04-01T10:51:50.261Z,25.63
2018-04-01T10:54:16.718Z,24.47
2018-04-01T10:56:43.187Z,20.70
2018-04-01T10:59:10.223Z,21.97
2018-04-01T11:01:36.661Z,22.30
2018-04-01T11:04:03.102Z,23.73
2018-04-01T11:06:29.577Z,19.73
2018-04-01T11:08:56.162Z,23.17
2018-04-01T11:11:22.829Z,14.70
2018-04-01T11:13:49.774Z,16.20
2018-04-01T11:16:16.235Z,16.43
2018-04-01T11:18:42.730Z,16.53
2018-04-01T11:21:09.238Z,18.40
2018-04-01T11:23:35.705Z,23.20
2018-04-01T11:26:02.199Z,20.90
2018-04-01T11:28:28.654Z,21.20
2018-04-01T11:30:55.114Z,21.53
2018-04-01T11:33:22.178Z,24.27
2018-04-01T11:35:49.312Z,27.00
2018-04-01T11:38:16.401Z,26.97
2018-04-01T11:40:42.963Z,27.40
2018-04-01T11:43:09.455Z,24.20
2018-04-01T11:45:37.376Z,27.13
2018-04-01T11:48:04.771Z,26.50
2018-04-01T11:50:31.222Z,24.63
2018-04-01T11:52:57.678Z,22.37
2018-04-01T11:55:24.826Z,20.13
2018-04-01T11:57:52.024Z,22.17
2018-04-01T12:00:18.511Z,22.07
2018-04-01T12:02:45.387Z,21.73
2018-04-01T12:05:11.821Z,29.47
2018-04-01T12:07:39.504Z,25.40
2018-04-01T12:10:06.424Z,24.57
2018-04-01T12:12:32.873Z,25.37
2018-04-01T12:14:59.370Z,26.27
2018-04-01T12:17:25.839Z,21.10
2018-04-01T12:19:52.316Z,21.53
2018-04-01T12:22:18.772Z,25.83
2018-04-01T12:24:47.013Z,23.77
2018-04-01T12:27:16.233Z,21.73
2018-04-01T12:29:44.843Z,25.27
2018-04-01T12:32:12.114Z,26.47
2018-04-01T12:34:38.559Z,24.20
2018-04-01T12:37:05.019Z,29.80
2018-04-01T12:39:32.133Z,24.37
2018-04-01T12:41:59.410Z,27.27
2018-04-01T12:44:26.902Z,34.77
2018-04-01T12:46:53.359Z,33.30
2018-04-01T12:49:20.302Z,38.90
2018-04-01T12:51:47.433Z,41.67
2018-04-01T12:54:14.819Z,28.40
2018-04-01T12:56:44.113Z,27.93
2018-04-01T12:59:11.115Z,26.07
2018-04-01T13:01:37.605Z,27.40
2018-04-01T13:04:04.689Z,26.50
2018-04-01T13:06:33.310Z,24.00
2018-04-01T13:09:00.542Z,25.50
2018-04-01T13:11:27.014Z,23.53
2018-04-01T13:13:53.467Z,27.70
2018-04-01T13:16:20.917Z,25.53
2018-04-01T13:18:47.409Z,31.03
2018-04-01T13:21:15.183Z,27.33
2018-04-01T13:23:41.973Z,27.43
2018-04-01T13:26:08.976Z,27.83
2018-04-01T13:28:36.285Z,29.30
2018-04-01T13:31:02.719Z,24.63
2018-04-01T13:33:31.956Z,26.73
2018-04-01T13:35:58.420Z,30.77
2018-04-01T13:38:26.186Z,29.50
2018-04-01T13:40:52.663Z,31.00
2018-04-01T13:43:19.139Z,33.03
2018-04-01T13:45:45.638Z,32.90
2018-04-01T13:48:12.115Z,27.77
2018-04-01T13:50:38.589Z,28.13
2018-04-01T13:53:05.138Z,26.60
2018-04-01T13:55:34.696Z,24.80
2018-04-01T13:58:01.131Z,26.80
2018-04-01T14:00:28.119Z,32.10
2018-04-01T14:02:54.569Z,26.17
2018-04-01T14:05:21.050Z,30.00
2018-04-01T14:07:47.492Z,26.40
2018-04-01T14:10:13.957Z,31.67
2018-04-01T14:12:40.421Z,33.27
2018-04-01T14:15:06.866Z,29.43
2018-04-01T14:17:34.747Z,32.50
2018-04-01T14:20:01.237Z,31.20
2018-04-01T14:22:27.653Z,31.10
2018-04-01T14:24:55.691Z,29.20
2018-04-01T14:27:24.074Z,35.00
2018-04-01T14:29:51.526Z,33.60
2018-04-01T14:32:17.941Z,28.83
2018-04-01T14:34:45.755Z,31.00
2018-04-01T14:37:12.192Z,31.73
2018-04-01T14:39:38.820Z,34.73
2018-04-01T14:42:06.232Z,36.70
2018-04-01T14:44:33.525Z,33.80
2018-04-01T14:47:00.036Z,30.53
2018-04-01T14:49:26.462Z,31.17
2018-04-01T14:51:53.577Z,28.80
2018-04-01T14:54:20.145Z,34.33
2018-04-01T14:56:46.848Z,36.90
2018-04-01T14:59:16.242Z,32.40
2018-04-01T15:01:43.349Z,37.30
2018-04-01T15:04:09.805Z,39.70
2018-04-01T15:06:36.288Z,43.23
2018-04-01T15:09:02.862Z,42.83
2018-04-01T15:11:29.425Z,41.20
2018-04-01T15:13:56.756Z,38.60
2018-04-01T15:16:23.825Z,41.20
2018-04-01T15:18:50.274Z,43.60
2018-04-01T15:21:16.754Z,46.13
2018-04-01T15:23:43.194Z,38.63
2018-04-01T15:26:09.654Z,39.50
2018-04-01T15:28:36.097Z,31.13
2018-04-01T15:31:02.545Z,22.30
2018-04-01T15:33:29.769Z,18.17
2018-04-01T15:35:56.231Z,16.77
2018-04-01T15:38:22.649Z,19.73
2018-04-01T15:40:50.138Z,23.17
2018-04-01T15:43:16.577Z,30.10
2018-04-01T15:45:43.624Z,29.17
2018-04-01T15:48:10.078Z,38.67
2018-04-01T15:50:37.524Z,35.00
2018-04-01T15:53:03.978Z,33.83
2018-04-01T15:55:30.420Z,44.17
2018-04-01T15:57:56.939Z,52.83
2018-04-01T16:00:23.406Z,56.73
2018-04-01T16:02:50.865Z,51.50
2018-04-01T16:05:17.313Z,50.17
2018-04-01T16:07:47.549Z,55.67
2018-04-01T16:10:14.001Z,54.80
2018-04-01T16:12:41.298Z,60.00
2018-04-01T16:15:10.764Z,60.37
2018-04-01T16:17:37.205Z,56.67
2018-04-01T16:20:03.652Z,58.40
2018-04-01T16:22:30.116Z,58.53
2018-04-01T16:24:59.600Z,60.70
2018-04-01T16:27:26.038Z,67.87
2018-04-01T16:29:52.894Z,59.43
2018-04-01T16:32:20.302Z,61.43
2018-04-01T16:34:47.561Z,69.30
2018-04-01T16:37:14.020Z,66.73
2018-04-01T16:39:40.648Z,63.77
2018-04-01T16:42:07.683Z,74.13
2018-04-01T16:44:35.092Z,77.20
2018-04-01T16:47:03.775Z,75.27
2018-04-01T16:49:30.403Z,64.83
2018-04-01T16:51:56.894Z,73.03
2018-04-01T16:54:23.368Z,60.90
2018-04-01T16:56:49.903Z,56.53
2018-04-01T16:59:17.211Z,53.47
2018-04-01T17:01:44.705Z,54.17
2018-04-01T17:04:11.176Z,55.90
2018-04-01T17:06:37.640Z,61.33
2018-04-01T17:09:04.202Z,58.83
2018-04-01T17:11:30.737Z,61.00
2018-04-01T17:13:57.287Z,69.37
2018-04-01T17:16:24.917Z,58.80
2018-04-01T17:18:52.573Z,60.03
2018-04-01T17:21:19.919Z,54.57
2018-04-01T17:23:47.086Z,40.67
2018-04-01T17:26:15.400Z,41.80
2018-04-01T17:28:41.845Z,40.77
2018-04-01T17:31:08.996Z,38.60
2018-04-01T17:33:35.498Z,37.30
2018-04-01T17:36:03.518Z,37.70
2018-04-01T17:38:29.944Z,38.20
2018-04-01T17:40:56.405Z,33.90
2018-04-01T17:43:23.709Z,36.70
2018-04-01T17:45:50.176Z,34.33
2018-04-01T17:48:17.732Z,40.93
2018-04-01T17:50:44.225Z,32.17
2018-04-01T17:53:11.453Z,29.00
2018-04-01T17:55:37.915Z,34.73
2018-04-01T17:58:04.404Z,32.27
2018-04-01T18:00:31.794Z,37.30
2018-04-01T18:02:59.071Z,38.57
2018-04-01T18:05:26.341Z,31.20
2018-04-01T18:07:53.878Z,32.00
2018-04-01T18:10:21.138Z,28.93
2018-04-01T18:12:47.649Z,30.23
2018-04-01T18:15:14.113Z,29.60
2018-04-01T18:17:40.634Z,25.80
2018-04-01T18:20:07.590Z,28.07
2018-04-01T18:22:34.044Z,27.10
2018-04-01T18:25:00.535Z,27.93
2018-04-01T18:27:26.975Z,29.23
2018-04-01T18:29:53.599Z,30.80
2018-04-01T18:32:20.693Z,29.37
2018-04-01T18:34:47.159Z,29.57
2018-04-01T18:37:14.378Z,29.87
2018-04-01T18:39:42.797Z,29.93
2018-04-01T18:42:09.262Z,29.17
2018-04-01T18:44:35.837Z,27.57
2018-04-01T18:47:03.230Z,26.40
2018-04-01T18:49:29.692Z,28.03
2018-04-01T18:51:56.144Z,26.77
2018-04-01T18:54:22.707Z,29.50
2018-04-01T18:56:50.104Z,29.57
2018-04-01T18:59:16.585Z,28.70
2018-04-01T19:01:44.022Z,29.13
2018-04-01T19:04:11.215Z,28.67
2018-04-01T19:06:38.602Z,28.73
2018-04-01T19:09:06.196Z,28.00
2018-04-01T19:11:33.595Z,27.13
2018-04-01T19:14:03.781Z,31.10
2018-04-01T19:16:30.514Z,29.90
2018-04-01T19:19:00.052Z,32.93
2018-04-01T19:21:26.829Z,31.43
2018-04-01T19:23:53.545Z,30.47
2018-04-01T19:26:21.202Z,32.63
2018-04-01T19:28:48.573Z,32.63
2018-04-01T19:31:15.272Z,34.27
2018-04-01T19:33:42.000Z,37.50
2018-04-01T19:36:10.480Z,32.40
2018-04-01T19:38:37.899Z,34.03
2018-04-01T19:41:04.608Z,35.20
2018-04-01T19:43:32.255Z,33.70
2018-04-01T19:45:59.021Z,35.40
2018-04-01T19:48:25.714Z,36.23
2018-04-01T19:50:52.408Z,35.17
2018-04-01T19:53:19.237Z,37.70
2018-04-01T19:55:45.947Z,38.60
2018-04-01T19:58:13.447Z,40.80
2018-04-01T20:00:40.159Z,38.23
2018-04-01T20:03:06.933Z,40.33
2018-04-01T20:05:34.567Z,39.43
2018-04-01T20:08:01.277Z,38.90
2018-04-01T20:10:28.715Z,41.70
2018-04-01T20:12:55.406Z,41.60
2018-04-01T20:15:22.148Z,41.73
2018-04-01T20:17:49.741Z,43.77
2018-04-01T20:20:16.444Z,44.83
2018-04-01T20:22:43.945Z,54.23
2018-04-01T20:25:10.677Z,51.30
2018-04-01T20:27:38.382Z,52.53
2018-04-01T20:30:05.099Z,53.37
2018-04-01T20:32:32.639Z,52.27
2018-04-01T20:35:00.054Z,63.10
2018-04-01T20:37:27.509Z,74.87
2018-04-01T20:39:54.228Z,72.53
2018-04-01T20:42:22.488Z,86.07
2018-04-01T20:44:50.030Z,76.60
2018-04-01T20:47:16.753Z,77.57
2018-04-01T20:49:44.163Z,82.40
2018-04-01T20:52:11.759Z,84.67
2018-04-01T20:54:38.483Z,90.20
2018-04-01T20:57:07.661Z,91.07
2018-04-01T20:59:34.455Z,89.90
2018-04-01T21:02:02.051Z,90.13
2018-04-01T21:04:28.738Z,84.50
2018-04-01T21:06:55.446Z,86.60
2018-04-01T21:09:22.165Z,85.50
2018-04-01T21:11:48.860Z,81.80
2018-04-01T21:14:15.589Z,81.37
2018-04-01T21:16:42.382Z,85.50
2018-04-01T21:19:09.118Z,82.43
2018-04-01T21:21:35.834Z,81.43
2018-04-01T21:24:02.594Z,89.80
2018-04-01T21:26:29.421Z,81.27
2018-04-01T21:28:56.190Z,83.37
2018-04-01T21:31:22.906Z,81.33
2018-04-01T21:33:49.607Z,78.00
2018-04-01T21:36:16.486Z,78.83
2018-04-01T21:38:43.189Z,80.33
2018-04-01T21:41:09.901Z,71.47
2018-04-01T21:43:36.597Z,83.30
2018-04-01T21:46:03.413Z,72.43
2018-04-01T21:48:30.143Z,75.33
2018-04-01T21:50:56.908Z,77.93
2018-04-01T21:53:23.623Z,75.23
2018-04-01T21:55:50.327Z,73.80
2018-04-01T21:58:17.050Z,71.43
2018-04-01T22:00:43.762Z,73.30
2018-04-01T22:03:10.448Z,79.03
2018-04-01T22:05:37.149Z,69.30
2018-04-01T22:08:03.855Z,75.33
2018-04-01T22:10:30.555Z,72.20
2018-04-01T22:12:57.259Z,71.57
2018-04-01T22:15:23.962Z,73.40
2018-04-01T22:17:50.681Z,75.90
2018-04-01T22:20:17.430Z,73.67
2018-04-01T22:22:50.052Z,76.77
2018-04-01T22:25:16.762Z,76.43
2018-04-01T22:27:43.471Z,84.03
2018-04-01T22:30:10.291Z,79.90
2018-04-01T22:32:36.952Z,83.20
2018-04-01T22:35:03.674Z,80.63
2018-04-01T22:37:30.487Z,85.07
2018-04-01T22:39:57.217Z,77.53
2018-04-01T22:42:23.900Z,79.67
2018-04-01T22:44:50.614Z,84.23
2018-04-01T22:47:17.313Z,82.27
2018-04-01T22:49:44.046Z,84.20
2018-04-01T22:52:10.770Z,74.30
2018-04-01T22:54:37.529Z,83.50
2018-04-01T22:57:09.267Z,84.57
2018-04-01T22:59:35.994Z,81.37
2018-04-01T23:02:02.686Z,78.70
2018-04-01T23:04:29.417Z,73.60
2018-04-01T23:06:56.147Z,78.80
2018-04-01T23:09:22.837Z,73.80
2018-04-01T23:11:49.534Z,74.83
2018-04-01T23:14:16.213Z,77.03
2018-04-01T23:16:42.936Z,82.50
2018-04-01T23:19:09.630Z,79.50
2018-04-01T23:21:36.341Z,81.93
2018-04-01T23:24:03.008Z,78.03
2018-04-01T23:26:29.698Z,79.03
2018-04-01T23:28:56.537Z,86.97
2018-04-01T23:31:23.243Z,92.90
2018-04-01T23:33:49.947Z,86.63
2018-04-01T23:36:16.641Z,80.17
2018-04-01T23:38:43.401Z,84.47
2018-04-01T23:41:11.116Z,75.37
2018-04-01T23:43:37.905Z,75.87
2018-04-01T23:46:04.617Z,73.23
2018-04-01T23:48:31.351Z,85.50
2018-04-01T23:50:58.061Z,82.67
2018-04-01T23:53:24.736Z,90.93
2018-04-01T23:55:51.438Z,90.57
2018-04-01T23:58:18.129Z,89.20
